Time;durP1;ratioP1;P1;durP2;ratioP2;P2;SDS_P1;SDS_P2;PMS_P1;PMS_P2;Temp;Humidity;BMP_temperature;BMP_pressure;BME280_temperature;BME280_humidity;BME280_pressure;Samples;Min_cycle;Max_cycle;Signal;HPM_P1;HPM_P2
2022/09/22 00:00:42;;;;;;;7.82;7.32;;;;;;;;;;5035228;28;20052;-64
2022/09/22 00:03:08;;;;;;;8.93;8.32;;;;;;;;;;5035046;28;20030;-63
2022/09/22 00:05:33;;;;;;;7.82;7.32;;;;;;;;;;5035732;28;20056;-63
2022/09/22 00:08:00;;;;;;;7.65;7.15;;;;;;;;;;5035738;28;20040;-63
2022/09/22 00:10:27;;;;;;;8.50;7.90;;;;;;;;;;5039173;28;20029;-63
2022/09/22 00:12:53;;;;;;;7.97;7.47;;;;;;;;;;5035394;28;20044;-63
2022/09/22 00:15:19;;;;;;;7.93;7.43;;;;;;;;;;5034130;28;20095;-63
2022/09/22 00:17:45;;;;;;;7.28;6.78;;;;;;;;;;5039182;28;20029;-65
2022/09/22 00:20:12;;;;;;;8.50;7.93;;;;;;;;;;5036617;28;20033;-63
2022/09/22 00:22:39;;;;;;;7.38;6.88;;;;;;;;;;5033772;28;20663;-63
2022/09/22 00:25:07;;;;;;;7.30;6.80;;;;;;;;;;5036499;28;20047;-63
2022/09/22 00:27:32;;;;;;;8.40;7.80;;;;;;;;;;5036199;28;20033;-63
2022/09/22 00:29:57;;;;;;;7.78;7.28;;;;;;;;;;5035562;28;20095;-63
2022/09/22 00:32:23;;;;;;;8.32;7.72;;;;;;;;;;5038943;28;20022;-63
2022/09/22 00:34:48;;;;;;;7.63;7.13;;;;;;;;;;5034371;28;20539;-63
2022/09/22 00:37:14;;;;;;;7.57;7.07;;;;;;;;;;5038743;28;20040;-63
2022/09/22 00:39:40;;;;;;;8.35;7.80;;;;;;;;;;5034788;28;20101;-62
2022/09/22 00:42:05;;;;;;;7.95;7.45;;;;;;;;;;5037540;28;20029;-63
2022/09/22 00:44:31;;;;;;;8.00;7.20;;;;;;;;;;5037581;28;20021;-63
2022/09/22 00:47:24;;;;;;;7.43;6.93;;;;;;;;;;5036359;28;20037;-64
2022/09/22 00:49:57;;;;;;;7.63;7.13;;;;;;;;;;5035901;28;20395;-65
2022/09/22 00:52:36;;;;;;;8.50;7.90;;;;;;;;;;5031919;28;20030;-64
2022/09/22 00:55:07;;;;;;;8.35;7.75;;;;;;;;;;5036278;28;20534;-65
2022/09/22 00:57:35;;;;;;;7.60;7.00;;;;;;;;;;5034456;28;20432;-65
2022/09/22 01:00:04;;;;;;;7.50;7.00;;;;;;;;;;5043702;28;20121;-63
2022/09/22 01:02:30;;;;;;;7.82;7.22;;;;;;;;;;5041584;28;20041;-63
2022/09/22 01:04:55;;;;;;;7.43;6.93;;;;;;;;;;5038922;28;20423;-62
2022/09/22 01:07:25;;;;;;;7.18;6.68;;;;;;;;;;5039805;28;20100;-63
2022/09/22 01:09:51;;;;;;;6.70;6.20;;;;;;;;;;5037986;28;20040;-62
2022/09/22 01:12:18;;;;;;;7.32;6.82;;;;;;;;;;5042053;28;20119;-63
2022/09/22 01:14:58;;;;;;;8.48;7.78;;;;;;;;;;5038457;28;20029;-62
2022/09/22 01:17:39;;;;;;;7.40;6.90;;;;;;;;;;5040883;28;20035;-65
2022/09/22 01:20:29;;;;;;;6.60;6.15;;;;;;;;;;5037933;28;20426;-64
2022/09/22 01:23:29;;;;;;;8.55;7.95;;;;;;;;;;5039708;28;20028;-65
2022/09/22 01:26:18;;;;;;;7.57;7.07;;;;;;;;;;5030352;28;20703;-62
2022/09/22 01:29:11;;;;;;;8.48;7.88;;;;;;;;;;5039575;28;20084;-64
2022/09/22 01:31:59;;;;;;;7.53;7.03;;;;;;;;;;5040742;28;20052;-65
2022/09/22 01:34:32;;;;;;;8.60;8.00;;;;;;;;;;5041392;28;20032;-64
2022/09/22 01:37:16;;;;;;;8.02;7.53;;;;;;;;;;5038286;28;20040;-64
2022/09/22 01:39:58;;;;;;;7.40;6.90;;;;;;;;;;5042305;28;20033;-64
2022/09/22 01:42:44;;;;;;;8.15;7.65;;;;;;;;;;5038980;28;20056;-64
2022/09/22 01:45:15;;;;;;;8.30;7.70;;;;;;;;;;5037250;28;20567;-64
2022/09/22 01:47:54;;;;;;;9.77;9.02;;;;;;;;;;5039145;28;20091;-64
2022/09/22 01:50:41;;;;;;;9.00;8.40;;;;;;;;;;5038841;28;20082;-64
2022/09/22 01:53:11;;;;;;;7.88;7.38;;;;;;;;;;5036285;28;20029;-64
2022/09/22 01:55:41;;;;;;;8.68;8.07;;;;;;;;;;5037840;28;20511;-64
2022/09/22 01:58:10;;;;;;;8.25;7.75;;;;;;;;;;5039939;28;20463;-64
2022/09/22 02:00:39;;;;;;;8.85;8.25;;;;;;;;;;5037825;28;20035;-64
2022/09/22 02:03:34;;;;;;;9.73;8.65;;;;;;;;;;5036776;28;20099;-64
2022/09/22 02:06:23;;;;;;;8.15;7.65;;;;;;;;;;5006130;28;20061;-64
2022/09/22 02:09:03;;;;;;;9.18;8.57;;;;;;;;;;5036710;28;20112;-64
2022/09/22 02:11:29;;;;;;;8.40;7.90;;;;;;;;;;5039506;28;20030;-64
2022/09/22 02:13:54;;;;;;;8.77;8.18;;;;;;;;;;5038393;28;20103;-64
2022/09/22 02:16:22;;;;;;;8.35;7.85;;;;;;;;;;5035939;28;20039;-64
2022/09/22 02:19:31;;;;;;;9.70;9.10;;;;;;;;;;5036148;28;20040;-64
2022/09/22 02:21:57;;;;;;;9.38;8.77;;;;;;;;;;5038486;28;20511;-64
2022/09/22 02:24:32;;;;;;;8.85;8.25;;;;;;;;;;5036917;28;20028;-64
2022/09/22 02:27:03;;;;;;;8.73;8.13;;;;;;;;;;5042311;28;20082;-64
2022/09/22 02:29:32;;;;;;;8.82;8.23;;;;;;;;;;5037968;28;20033;-64
2022/09/22 02:32:01;;;;;;;8.93;8.32;;;;;;;;;;5035520;28;20034;-64
2022/09/22 02:34:27;;;;;;;8.68;8.13;;;;;;;;;;5035712;28;20037;-64
2022/09/22 02:37:16;;;;;;;8.77;8.18;;;;;;;;;;5038790;28;20473;-64
2022/09/22 02:39:56;;;;;;;8.85;8.25;;;;;;;;;;5036597;28;20384;-64
2022/09/22 02:42:38;;;;;;;9.37;8.77;;;;;;;;;;5037151;28;20039;-64
2022/09/22 02:45:33;;;;;;;9.30;8.70;;;;;;;;;;5036272;28;20062;-64
2022/09/22 02:48:12;;;;;;;8.93;8.32;;;;;;;;;;5039555;28;20091;-64
2022/09/22 02:50:38;;;;;;;8.25;7.75;;;;;;;;;;4999887;28;1087190;-64
2022/09/22 02:53:10;;;;;;;8.73;8.13;;;;;;;;;;5069788;28;20072;-64
2022/09/22 02:55:36;;;;;;;10.20;9.50;;;;;;;;;;5037764;28;20700;-64
2022/09/22 02:58:01;;;;;;;9.88;9.18;;;;;;;;;;5039479;28;20033;-64
2022/09/22 03:00:27;;;;;;;9.40;8.70;;;;;;;;;;5038976;28;20033;-64
2022/09/22 03:02:52;;;;;;;9.20;8.60;;;;;;;;;;5038706;28;20033;-64
2022/09/22 03:05:18;;;;;;;8.35;7.85;;;;;;;;;;5037736;28;20172;-64
2022/09/22 03:07:43;;;;;;;9.98;9.27;;;;;;;;;;5038130;28;20025;-64
2022/09/22 03:10:09;;;;;;;10.02;9.32;;;;;;;;;;5038209;28;20575;-64
2022/09/22 03:12:35;;;;;;;9.23;8.43;;;;;;;;;;5037440;28;20048;-64
2022/09/22 03:15:00;;;;;;;8.30;7.80;;;;;;;;;;5038778;28;20028;-64
2022/09/22 03:17:25;;;;;;;9.18;8.57;;;;;;;;;;5039072;28;20048;-65
2022/09/22 03:19:51;;;;;;;9.63;8.80;;;;;;;;;;5037405;28;20037;-64
2022/09/22 03:22:16;;;;;;;9.95;9.25;;;;;;;;;;5035274;28;20037;-64
2022/09/22 03:24:42;;;;;;;7.90;7.40;;;;;;;;;;5037368;28;20033;-63
2022/09/22 03:27:07;;;;;;;10.05;8.20;;;;;;;;;;5037449;28;20359;-64
2022/09/22 03:29:33;;;;;;;8.85;8.25;;;;;;;;;;5037423;28;20100;-63
2022/09/22 03:31:58;;;;;;;9.10;8.50;;;;;;;;;;5038456;28;20581;-63
2022/09/22 03:34:23;;;;;;;8.50;7.90;;;;;;;;;;5040728;28;20025;-63
2022/09/22 03:36:49;;;;;;;8.77;8.18;;;;;;;;;;5037781;28;20034;-63
2022/09/22 03:39:14;;;;;;;7.47;6.97;;;;;;;;;;5036421;28;20025;-64
2022/09/22 03:41:39;;;;;;;7.20;6.70;;;;;;;;;;5037418;28;20466;-63
2022/09/22 03:44:05;;;;;;;7.07;6.57;;;;;;;;;;5036420;28;20414;-64
2022/09/22 03:46:30;;;;;;;7.03;6.50;;;;;;;;;;5039094;28;20021;-64
2022/09/22 03:48:56;;;;;;;7.50;7.00;;;;;;;;;;5038613;28;20056;-64
2022/09/22 03:51:21;;;;;;;7.50;7.00;;;;;;;;;;5041088;28;20038;-65
2022/09/22 03:53:47;;;;;;;9.02;8.43;;;;;;;;;;5035741;28;20032;-64
2022/09/22 03:56:14;;;;;;;7.57;7.07;;;;;;;;;;5037951;28;20509;-64
2022/09/22 03:58:39;;;;;;;7.82;6.97;;;;;;;;;;5034265;28;20409;-63
2022/09/22 04:01:06;;;;;;;7.60;7.05;;;;;;;;;;5037201;28;20025;-64
2022/09/22 04:03:32;;;;;;;7.90;7.40;;;;;;;;;;5035065;28;20022;-64
2022/09/22 04:05:58;;;;;;;9.48;8.85;;;;;;;;;;5038099;28;20028;-64
2022/09/22 04:08:23;;;;;;;8.40;7.90;;;;;;;;;;5035918;28;20036;-64
2022/09/22 04:10:49;;;;;;;8.88;8.27;;;;;;;;;;5039044;28;20033;-64
2022/09/22 04:13:14;;;;;;;9.20;8.60;;;;;;;;;;5065988;28;20458;-64
2022/09/22 04:15:40;;;;;;;8.77;8.20;;;;;;;;;;5034987;28;20067;-64
2022/09/22 04:18:06;;;;;;;9.60;9.00;;;;;;;;;;5036331;28;20037;-63
2022/09/22 04:20:31;;;;;;;9.40;8.80;;;;;;;;;;5036193;28;20383;-64
2022/09/22 04:22:57;;;;;;;9.57;8.98;;;;;;;;;;5033850;28;20553;-64
2022/09/22 04:25:23;;;;;;;9.48;8.88;;;;;;;;;;5032872;28;20688;-64
2022/09/22 04:27:48;;;;;;;9.35;8.75;;;;;;;;;;5037438;28;20360;-64
2022/09/22 04:30:14;;;;;;;9.82;9.20;;;;;;;;;;5037011;28;20120;-63
2022/09/22 04:32:40;;;;;;;9.75;9.15;;;;;;;;;;5039222;28;20056;-64
2022/09/22 04:35:06;;;;;;;9.85;9.25;;;;;;;;;;5038508;28;20423;-64
2022/09/22 04:37:31;;;;;;;9.75;9.15;;;;;;;;;;5031976;28;20029;-64
2022/09/22 04:39:58;;;;;;;9.82;9.23;;;;;;;;;;5039195;28;20025;-64
2022/09/22 04:42:24;;;;;;;8.82;8.25;;;;;;;;;;5038340;28;20017;-64
2022/09/22 04:44:50;;;;;;;9.80;9.10;;;;;;;;;;5034779;28;20062;-64
2022/09/22 04:47:15;;;;;;;9.90;9.30;;;;;;;;;;5037737;28;20464;-64
2022/09/22 04:49:40;;;;;;;9.65;9.05;;;;;;;;;;5036927;28;20356;-64
2022/09/22 04:52:06;;;;;;;9.77;9.18;;;;;;;;;;5033402;28;20087;-64
2022/09/22 04:54:32;;;;;;;9.48;8.88;;;;;;;;;;5036448;28;20105;-64
2022/09/22 04:56:57;;;;;;;10.02;9.43;;;;;;;;;;5037740;28;20037;-64
2022/09/22 04:59:23;;;;;;;9.65;9.05;;;;;;;;;;5043068;28;20737;-64
2022/09/22 05:01:48;;;;;;;9.50;8.90;;;;;;;;;;5032170;28;20032;-64
2022/09/22 05:04:13;;;;;;;9.52;8.93;;;;;;;;;;5037692;28;20029;-62
2022/09/22 05:06:40;;;;;;;10.93;10.23;;;;;;;;;;5037486;28;20034;-63
2022/09/22 05:09:06;;;;;;;9.98;9.38;;;;;;;;;;5035089;28;20036;-63
2022/09/22 05:11:31;;;;;;;9.55;8.95;;;;;;;;;;5034640;28;20029;-63
2022/09/22 05:13:57;;;;;;;10.07;9.48;;;;;;;;;;5038906;28;20127;-63
2022/09/22 05:16:24;;;;;;;10.75;10.05;;;;;;;;;;5038784;28;20033;-63
2022/09/22 05:18:49;;;;;;;9.98;9.38;;;;;;;;;;5036677;28;20029;-63
2022/09/22 05:21:18;;;;;;;9.10;8.50;;;;;;;;;;5035921;28;20041;-62
2022/09/22 05:23:44;;;;;;;9.70;9.10;;;;;;;;;;5036096;28;20474;-62
2022/09/22 05:26:10;;;;;;;10.93;10.25;;;;;;;;;;5039960;28;20048;-62
2022/09/22 05:28:35;;;;;;;9.80;9.20;;;;;;;;;;5036286;28;20048;-65
2022/09/22 05:31:00;;;;;;;9.48;8.88;;;;;;;;;;5072257;28;20063;-64
2022/09/22 05:33:26;;;;;;;9.32;8.73;;;;;;;;;;5038584;28;20367;-63
2022/09/22 05:35:51;;;;;;;9.30;8.70;;;;;;;;;;5037760;28;20104;-64
2022/09/22 05:38:16;;;;;;;8.50;8.00;;;;;;;;;;5036046;28;20025;-63
2022/09/22 05:40:45;;;;;;;10.10;9.40;;;;;;;;;;5038686;28;20021;-65
2022/09/22 05:43:12;;;;;;;8.95;8.25;;;;;;;;;;5039271;28;20025;-65
2022/09/22 05:45:39;;;;;;;8.15;7.65;;;;;;;;;;5038520;28;20025;-65
2022/09/22 05:48:04;;;;;;;8.63;8.05;;;;;;;;;;5039116;28;20098;-64
2022/09/22 05:50:29;;;;;;;8.55;8.00;;;;;;;;;;5039712;28;20037;-64
2022/09/22 05:53:03;;;;;;;8.13;7.45;;;;;;;;;;5043053;28;20037;-64
2022/09/22 05:55:29;;;;;;;7.88;7.38;;;;;;;;;;5047606;28;20052;-64
2022/09/22 05:57:58;;;;;;;7.82;7.32;;;;;;;;;;5043722;28;20452;-64
2022/09/22 06:00:25;;;;;;;7.10;6.60;;;;;;;;;;5044726;28;20481;-65
2022/09/22 06:02:50;;;;;;;7.50;7.00;;;;;;;;;;5042492;28;20029;-64
2022/09/22 06:05:16;;;;;;;8.15;7.60;;;;;;;;;;5039121;28;20039;-63
2022/09/22 06:07:41;;;;;;;7.60;7.10;;;;;;;;;;5039577;28;20040;-64
2022/09/22 06:10:09;;;;;;;8.05;7.55;;;;;;;;;;5040772;28;20043;-64
2022/09/22 06:12:34;;;;;;;8.52;7.90;;;;;;;;;;5039892;28;20048;-64
2022/09/22 06:14:59;;;;;;;8.70;8.10;;;;;;;;;;5038843;28;20029;-64
2022/09/22 06:17:25;;;;;;;8.00;7.50;;;;;;;;;;5039899;28;20116;-64
2022/09/22 06:19:50;;;;;;;8.38;7.78;;;;;;;;;;5041484;28;20059;-64
2022/09/22 06:22:16;;;;;;;9.77;9.18;;;;;;;;;;5046982;28;20443;-63
2022/09/22 06:24:42;;;;;;;9.20;8.60;;;;;;;;;;5040802;28;20476;-64
2022/09/22 06:27:07;;;;;;;8.85;8.25;;;;;;;;;;5044304;28;20033;-64
2022/09/22 06:29:33;;;;;;;9.77;9.18;;;;;;;;;;5037150;28;20022;-63
2022/09/22 06:31:58;;;;;;;8.82;8.23;;;;;;;;;;5039553;28;20057;-64
2022/09/22 06:34:25;;;;;;;9.57;8.98;;;;;;;;;;5041818;28;20592;-64
2022/09/22 06:36:54;;;;;;;9.75;9.15;;;;;;;;;;5040627;28;20109;-64
2022/09/22 06:39:20;;;;;;;9.05;8.45;;;;;;;;;;5041883;28;20029;-64
2022/09/22 06:41:46;;;;;;;10.05;9.40;;;;;;;;;;5041857;28;20076;-64
2022/09/22 06:44:11;;;;;;;8.95;8.35;;;;;;;;;;5039898;28;20021;-64
2022/09/22 06:46:37;;;;;;;8.75;8.05;;;;;;;;;;5040458;28;20040;-64
2022/09/22 06:49:03;;;;;;;9.32;8.73;;;;;;;;;;5035180;28;20044;-64
2022/09/22 06:51:32;;;;;;;9.00;8.40;;;;;;;;;;5038777;28;20037;-64
2022/09/22 06:53:59;;;;;;;8.27;7.72;;;;;;;;;;5039193;28;20529;-64
2022/09/22 06:56:26;;;;;;;8.38;7.78;;;;;;;;;;5040018;28;20053;-63
2022/09/22 06:58:53;;;;;;;8.35;7.75;;;;;;;;;;5047021;28;20424;-65
2022/09/22 07:01:18;;;;;;;9.00;8.32;;;;;;;;;;5041130;28;20020;-63
2022/09/22 07:03:45;;;;;;;7.85;7.35;;;;;;;;;;5040186;28;20110;-62
2022/09/22 07:06:16;;;;;;;7.70;7.13;;;;;;;;;;5044742;28;20055;-64
2022/09/22 07:08:43;;;;;;;7.28;6.78;;;;;;;;;;5040722;28;20132;-65
2022/09/22 07:11:09;;;;;;;8.07;7.47;;;;;;;;;;5041470;28;20466;-64
2022/09/22 07:13:37;;;;;;;7.45;6.95;;;;;;;;;;5042891;28;20041;-64
2022/09/22 07:16:06;;;;;;;7.25;6.75;;;;;;;;;;5042014;28;20039;-64
2022/09/22 07:18:32;;;;;;;7.25;6.75;;;;;;;;;;5040325;28;20080;-65
2022/09/22 07:21:19;;;;;;;7.10;6.60;;;;;;;;;;5035823;28;20037;-64
2022/09/22 07:23:48;;;;;;;6.72;6.22;;;;;;;;;;5037820;28;20025;-63
2022/09/22 07:26:15;;;;;;;6.68;6.18;;;;;;;;;;5035964;28;20066;-64
2022/09/22 07:28:41;;;;;;;6.90;6.40;;;;;;;;;;5042006;28;20424;-64
2022/09/22 07:31:11;;;;;;;6.65;6.15;;;;;;;;;;5034572;28;20514;-65
2022/09/22 07:33:38;;;;;;;6.23;5.77;;;;;;;;;;5040839;28;20026;-65
2022/09/22 07:36:09;;;;;;;5.60;5.20;;;;;;;;;;5040049;28;20063;-64
2022/09/22 07:38:36;;;;;;;6.18;5.75;;;;;;;;;;5037395;28;20060;-65
2022/09/22 07:41:04;;;;;;;5.72;5.32;;;;;;;;;;5038195;28;20114;-65
2022/09/22 07:43:29;;;;;;;6.28;5.88;;;;;;;;;;5040032;28;20029;-65
2022/09/22 07:45:58;;;;;;;7.03;6.53;;;;;;;;;;5039817;28;20561;-64
2022/09/22 07:48:40;;;;;;;5.60;5.20;;;;;;;;;;5036567;28;20139;-64
2022/09/22 07:51:18;;;;;;;6.15;5.75;;;;;;;;;;5042074;28;20067;-64
2022/09/22 07:53:44;;;;;;;6.22;5.80;;;;;;;;;;5035897;28;20040;-65
2022/09/22 07:56:12;;;;;;;6.18;5.68;;;;;;;;;;5042081;28;20025;-64
2022/09/22 07:58:52;;;;;;;6.65;6.15;;;;;;;;;;5040332;28;20056;-65
2022/09/22 08:01:20;;;;;;;6.65;6.05;;;;;;;;;;5038448;28;20124;-66
2022/09/22 08:03:46;;;;;;;7.60;6.93;;;;;;;;;;5037604;28;20031;-66
2022/09/22 08:06:12;;;;;;;5.82;5.35;;;;;;;;;;5038392;28;20108;-65
2022/09/22 08:08:45;;;;;;;6.13;5.65;;;;;;;;;;5039908;28;20064;-65
2022/09/22 08:11:13;;;;;;;8.27;7.68;;;;;;;;;;5039751;28;20647;-65
2022/09/22 08:13:40;;;;;;;7.35;6.60;;;;;;;;;;5039698;28;20047;-66
2022/09/22 08:16:06;;;;;;;6.47;5.97;;;;;;;;;;5036187;28;20100;-66
2022/09/22 08:18:34;;;;;;;5.88;5.47;;;;;;;;;;5038619;28;20116;-66
2022/09/22 08:21:00;;;;;;;5.57;5.18;;;;;;;;;;5036391;28;20063;-66
2022/09/22 08:23:27;;;;;;;5.80;5.40;;;;;;;;;;5038583;28;20036;-66
2022/09/22 08:25:53;;;;;;;5.65;5.25;;;;;;;;;;5038523;28;20032;-66
2022/09/22 08:28:18;;;;;;;6.18;5.78;;;;;;;;;;5036751;28;20021;-66
2022/09/22 08:30:45;;;;;;;6.88;5.78;;;;;;;;;;5038835;28;20418;-67
2022/09/22 08:33:12;;;;;;;7.18;6.40;;;;;;;;;;5035507;28;20033;-67
2022/09/22 08:35:37;;;;;;;6.63;6.15;;;;;;;;;;5074562;28;20017;-67
2022/09/22 08:38:03;;;;;;;6.32;5.93;;;;;;;;;;5040748;28;20083;-67
2022/09/22 08:40:30;;;;;;;6.63;6.13;;;;;;;;;;5038600;28;20045;-66
2022/09/22 08:42:58;;;;;;;6.18;5.72;;;;;;;;;;5039594;28;20042;-67
2022/09/22 08:45:32;;;;;;;7.18;6.68;;;;;;;;;;5038684;28;20047;-67
2022/09/22 08:54:08;;;;;;;8.18;7.68;;;;;;;;;;5036451;28;20660;-65
2022/09/22 08:56:43;;;;;;;7.30;6.80;;;;;;;;;;5039902;28;20775;-65
2022/09/22 08:59:21;;;;;;;7.80;7.30;;;;;;;;;;5036018;28;20044;-66
2022/09/22 09:02:11;;;;;;;8.68;8.07;;;;;;;;;;5036428;28;20054;-65
2022/09/22 09:05:08;;;;;;;8.60;7.78;;;;;;;;;;5038669;28;20025;-67
2022/09/22 09:07:57;;;;;;;7.78;7.28;;;;;;;;;;5035952;28;20423;-65
2022/09/22 09:10:36;;;;;;;7.95;7.45;;;;;;;;;;5037969;28;20067;-65
2022/09/22 09:13:20;;;;;;;8.45;7.85;;;;;;;;;;5037340;28;20116;-65
2022/09/22 09:16:19;;;;;;;8.90;7.28;;;;;;;;;;5040680;28;20477;-64
2022/09/22 09:18:55;;;;;;;8.00;7.50;;;;;;;;;;5041396;28;20087;-68
2022/09/22 09:21:23;;;;;;;12.52;11.73;;;;;;;;;;5043564;28;20032;-65
2022/09/22 09:23:53;;;;;;;9.13;8.52;;;;;;;;;;5040222;28;20479;-67
2022/09/22 09:26:19;;;;;;;11.88;11.18;;;;;;;;;;5041691;28;20053;-66
2022/09/22 09:28:49;;;;;;;9.85;9.25;;;;;;;;;;5042012;28;20044;-67
2022/09/22 09:31:24;;;;;;;16.63;15.73;;;;;;;;;;5073813;28;20048;-67
2022/09/22 09:34:06;;;;;;;15.48;14.57;;;;;;;;;;5038813;28;20087;-66
2022/09/22 09:36:36;;;;;;;18.75;17.75;;;;;;;;;;5040068;28;20105;-67
2022/09/22 09:39:11;;;;;;;12.50;11.77;;;;;;;;;;5042583;28;20477;-67
2022/09/22 09:41:38;;;;;;;18.77;17.75;;;;;;;;;;5042153;28;20036;-67
2022/09/22 09:44:04;;;;;;;22.20;21.00;;;;;;;;;;5042129;28;20365;-67
2022/09/22 09:47:01;;;;;;;21.27;20.15;;;;;;;;;;5040602;28;20446;-67
2022/09/22 09:49:26;;;;;;;24.08;22.77;;;;;;;;;;5040782;28;20140;-67
2022/09/22 09:51:56;;;;;;;24.95;23.58;;;;;;;;;;5073374;28;20578;-67
2022/09/22 09:54:22;;;;;;;27.35;25.85;;;;;;;;;;5042518;28;20041;-68
2022/09/22 09:57:10;;;;;;;27.90;26.45;;;;;;;;;;5076913;28;20021;-67
2022/09/22 10:02:28;;;;;;;31.30;29.67;;;;;;;;;;5042835;28;20025;-68
2022/09/22 10:05:00;;;;;;;27.00;25.58;;;;;;;;;;5042080;28;20057;-66
2022/09/22 10:07:29;;;;;;;29.20;27.67;;;;;;;;;;5048573;28;20105;-66
2022/09/22 10:10:16;;;;;;;33.53;31.77;;;;;;;;;;5044010;28;20099;-66
2022/09/22 10:12:41;;;;;;;38.35;36.40;;;;;;;;;;5041097;28;20063;-66
2022/09/22 10:15:23;;;;;;;37.88;35.95;;;;;;;;;;5038989;28;20866;-66
2022/09/22 10:17:50;;;;;;;47.47;45.05;;;;;;;;;;5038962;28;20126;-66
2022/09/22 10:20:32;;;;;;;47.63;45.20;;;;;;;;;;5038061;28;20048;-67
2022/09/22 10:23:20;;;;;;;48.97;46.47;;;;;;;;;;5037497;28;20040;-66
2022/09/22 10:25:48;;;;;;;47.80;45.35;;;;;;;;;;5036199;28;20025;-67
2022/09/22 10:28:16;;;;;;;51.75;49.15;;;;;;;;;;5041167;28;20102;-67
2022/09/22 10:30:42;;;;;;;56.67;53.80;;;;;;;;;;5042155;28;20048;-67
2022/09/22 10:33:21;;;;;;;55.55;52.75;;;;;;;;;;5040517;28;20593;-67
2022/09/22 10:36:01;;;;;;;41.65;39.53;;;;;;;;;;5038816;28;20094;-67
2022/09/22 10:38:27;;;;;;;50.03;47.45;;;;;;;;;;5037952;28;20099;-67
2022/09/22 10:41:07;;;;;;;57.83;54.83;;;;;;;;;;5039813;28;20033;-67
2022/09/22 10:43:41;;;;;;;41.93;39.80;;;;;;;;;;5041016;28;20030;-67
2022/09/22 10:46:27;;;;;;;28.65;27.15;;;;;;;;;;5046375;28;20053;-65
2022/09/22 10:49:10;;;;;;;32.60;30.92;;;;;;;;;;5042795;28;20044;-67
2022/09/22 10:51:56;;;;;;;31.17;29.55;;;;;;;;;;5039944;28;20072;-67
2022/09/22 10:54:21;;;;;;;30.23;28.55;;;;;;;;;;5037887;28;20063;-66
2022/09/22 10:56:58;;;;;;;38.55;36.58;;;;;;;;;;5038525;28;20063;-67
2022/09/22 10:59:59;;;;;;;29.55;28.00;;;;;;;;;;5042215;28;20029;-66
2022/09/22 11:02:52;;;;;;;27.80;26.25;;;;;;;;;;5007858;28;20069;-66
2022/09/22 11:12:17;;;;;;;31.88;30.17;;;;;;;;;;5040654;28;20084;-68
2022/09/22 11:15:02;;;;;;;29.73;28.13;;;;;;;;;;5042797;28;20082;-68
2022/09/22 11:18:00;;;;;;;31.05;29.42;;;;;;;;;;5041518;28;20043;-68
2022/09/22 11:20:32;;;;;;;28.27;26.80;;;;;;;;;;5039740;28;20387;-69
2022/09/22 11:23:25;;;;;;;33.38;31.63;;;;;;;;;;5039860;28;20099;-68
2022/09/22 11:26:29;;;;;;;34.65;32.80;;;;;;;;;;5036833;28;20029;-68
2022/09/22 11:29:26;;;;;;;30.65;29.05;;;;;;;;;;5043206;28;20090;-68
2022/09/22 11:32:06;;;;;;;31.90;30.23;;;;;;;;;;5038319;28;20103;-68
2022/09/22 11:34:57;;;;;;;24.88;23.55;;;;;;;;;;5045970;28;20566;-68
2022/09/22 11:37:32;;;;;;;24.77;23.45;;;;;;;;;;5040766;28;20056;-67
2022/09/22 11:40:06;;;;;;;31.80;30.05;;;;;;;;;;5040534;28;20084;-68
2022/09/22 11:42:59;;;;;;;36.22;34.35;;;;;;;;;;5036811;28;20032;-69
2022/09/22 11:45:55;;;;;;;36.45;34.55;;;;;;;;;;5041198;28;20147;-69
2022/09/22 11:48:30;;;;;;;35.00;33.15;;;;;;;;;;5032653;28;20093;-68
2022/09/22 11:51:19;;;;;;;36.90;35.00;;;;;;;;;;5046636;28;20076;-67
2022/09/22 11:54:17;;;;;;;36.53;34.65;;;;;;;;;;5042365;28;20406;-68
2022/09/22 11:56:51;;;;;;;36.53;34.65;;;;;;;;;;5037945;28;20076;-68
2022/09/22 11:59:50;;;;;;;37.80;35.88;;;;;;;;;;5039869;28;20383;-69
2022/09/22 12:02:40;;;;;;;31.63;29.98;;;;;;;;;;5041675;28;20067;-68
2022/09/22 12:05:29;;;;;;;34.47;32.67;;;;;;;;;;5038532;28;20446;-68
2022/09/22 12:07:55;;;;;;;31.35;29.70;;;;;;;;;;5039597;28;20290;-68
2022/09/22 12:10:34;;;;;;;41.50;39.40;;;;;;;;;;5041469;28;20029;-68
2022/09/22 12:13:07;;;;;;;40.63;38.58;;;;;;;;;;5042496;28;20029;-70
2022/09/22 12:15:47;;;;;;;40.58;38.50;;;;;;;;;;5035829;28;20029;-68
2022/09/22 12:18:28;;;;;;;28.23;26.73;;;;;;;;;;5044016;28;20045;-68
2022/09/22 12:21:03;;;;;;;27.58;26.10;;;;;;;;;;5039784;28;20364;-72
2022/09/22 12:23:35;;;;;;;27.50;26.05;;;;;;;;;;5040146;28;20029;-72
2022/09/22 12:26:07;;;;;;;27.88;26.42;;;;;;;;;;5038011;28;20040;-72
2022/09/22 12:28:39;;;;;;;27.25;25.85;;;;;;;;;;5040577;28;20112;-72
2022/09/22 12:31:11;;;;;;;24.65;23.35;;;;;;;;;;5038766;28;20072;-73
2022/09/22 12:33:44;;;;;;;22.92;21.73;;;;;;;;;;5039223;28;20033;-72
2022/09/22 12:36:09;;;;;;;36.85;34.95;;;;;;;;;;5038135;28;20064;-72
2022/09/22 12:38:35;;;;;;;20.52;19.42;;;;;;;;;;5040476;28;20036;-73
2022/09/22 12:41:03;;;;;;;17.88;16.88;;;;;;;;;;5039645;28;20353;-74
2022/09/22 12:43:33;;;;;;;20.38;19.27;;;;;;;;;;5038684;28;20120;-73
2022/09/22 12:46:04;;;;;;;19.13;18.10;;;;;;;;;;5041167;28;20057;-73
2022/09/22 12:48:33;;;;;;;23.48;22.25;;;;;;;;;;5036342;28;20108;-73
2022/09/22 12:51:24;;;;;;;18.15;17.15;;;;;;;;;;5039488;28;20576;-70
2022/09/22 12:53:50;;;;;;;17.33;16.33;;;;;;;;;;5041532;28;20029;-71
2022/09/22 12:56:58;;;;;;;17.05;16.10;;;;;;;;;;5042245;28;20394;-72
2022/09/22 12:59:35;;;;;;;33.28;31.58;;;;;;;;;;5000898;28;20486;-73
2022/09/22 13:02:10;;;;;;;32.78;31.08;;;;;;;;;;5038302;28;20029;-73
2022/09/22 13:04:36;;;;;;;37.00;35.10;;;;;;;;;;5040380;28;20068;-73
2022/09/22 13:07:01;;;;;;;37.85;35.95;;;;;;;;;;5042395;28;20067;-73
2022/09/22 13:09:29;;;;;;;35.90;34.00;;;;;;;;;;5039708;28;20475;-72
2022/09/22 13:12:26;;;;;;;29.90;28.35;;;;;;;;;;5043289;28;20522;-72
2022/09/22 13:14:57;;;;;;;33.63;31.88;;;;;;;;;;5025901;28;20725;-72
2022/09/22 13:17:44;;;;;;;35.63;33.83;;;;;;;;;;5042193;28;20033;-69
2022/09/22 13:20:18;;;;;;;30.20;28.60;;;;;;;;;;5045088;28;20078;-72
2022/09/22 13:22:44;;;;;;;31.77;29.95;;;;;;;;;;5043934;28;20029;-72
2022/09/22 13:25:26;;;;;;;31.08;29.48;;;;;;;;;;5036736;28;20056;-73
2022/09/22 13:28:24;;;;;;;30.75;29.15;;;;;;;;;;5042292;28;20025;-72
2022/09/22 13:31:22;;;;;;;33.75;32.00;;;;;;;;;;4992295;28;20048;-72
2022/09/22 13:33:48;;;;;;;26.60;25.20;;;;;;;;;;4987076;28;20505;-72
2022/09/22 13:36:16;;;;;;;27.58;26.17;;;;;;;;;;5072974;28;20033;-72
2022/09/22 13:38:52;;;;;;;31.63;30.02;;;;;;;;;;5041651;28;20076;-72
2022/09/22 13:41:24;;;;;;;24.55;23.25;;;;;;;;;;5040497;28;20021;-72
2022/09/22 13:43:56;;;;;;;21.45;20.30;;;;;;;;;;5041421;28;20037;-72
2022/09/22 13:46:38;;;;;;;21.75;20.55;;;;;;;;;;5039618;28;20052;-72
2022/09/22 13:49:08;;;;;;;21.05;19.90;;;;;;;;;;5039677;28;20049;-70
2022/09/22 13:51:33;;;;;;;28.42;26.95;;;;;;;;;;5044237;28;20045;-71
2022/09/22 13:53:59;;;;;;;23.13;21.92;;;;;;;;;;5041238;28;20029;-73
2022/09/22 13:56:25;;;;;;;25.98;24.58;;;;;;;;;;5042467;28;20132;-70
2022/09/22 13:58:55;;;;;;;28.25;26.75;;;;;;;;;;5044331;28;20029;-71
2022/09/22 14:01:23;;;;;;;25.45;24.13;;;;;;;;;;5044079;28;20116;-71
2022/09/22 14:03:50;;;;;;;29.80;28.20;;;;;;;;;;5043147;28;20045;-71
2022/09/22 14:06:21;;;;;;;29.60;28.05;;;;;;;;;;5041868;28;20095;-70
2022/09/22 14:08:48;;;;;;;32.83;31.02;;;;;;;;;;5043113;28;20527;-71
2022/09/22 14:11:17;;;;;;;30.48;28.90;;;;;;;;;;5040842;28;20128;-72
2022/09/22 14:13:51;;;;;;;24.20;22.92;;;;;;;;;;5041169;28;20040;-71
2022/09/22 14:16:44;;;;;;;28.67;27.17;;;;;;;;;;5042517;28;20098;-71
2022/09/22 14:19:15;;;;;;;26.23;24.83;;;;;;;;;;5041609;28;20616;-71
2022/09/22 14:21:45;;;;;;;25.50;24.10;;;;;;;;;;5041801;28;20039;-70
2022/09/22 14:24:12;;;;;;;26.35;24.95;;;;;;;;;;5039692;28;20029;-70
2022/09/22 14:26:43;;;;;;;31.17;29.58;;;;;;;;;;5040275;28;20025;-70
2022/09/22 14:29:14;;;;;;;27.85;26.40;;;;;;;;;;5039611;28;20075;-71
2022/09/22 14:31:44;;;;;;;26.15;24.80;;;;;;;;;;5041962;28;20033;-71
2022/09/22 14:34:20;;;;;;;26.52;25.13;;;;;;;;;;5040397;28;20070;-72
2022/09/22 14:36:47;;;;;;;28.70;27.20;;;;;;;;;;5054911;28;20033;-71
2022/09/22 14:39:21;;;;;;;35.90;34.05;;;;;;;;;;5043180;28;20502;-72
2022/09/22 14:41:57;;;;;;;38.08;36.15;;;;;;;;;;5039998;28;20046;-70
2022/09/22 14:44:38;;;;;;;39.22;37.22;;;;;;;;;;5026248;28;20109;-72
2022/09/22 14:47:28;;;;;;;26.15;24.75;;;;;;;;;;5040110;28;20462;-72
2022/09/22 14:50:17;;;;;;;26.98;25.58;;;;;;;;;;5030251;28;20565;-71
2022/09/22 14:52:54;;;;;;;28.83;27.33;;;;;;;;;;5041241;28;20051;-70
2022/09/22 14:55:36;;;;;;;32.00;30.30;;;;;;;;;;5045292;28;20037;-70
2022/09/22 14:58:13;;;;;;;31.50;29.85;;;;;;;;;;5041399;28;20032;-70
2022/09/22 15:03:36;;;;;;;32.20;30.50;;;;;;;;;;5039610;28;20036;-71
2022/09/22 15:06:07;;;;;;;30.20;28.60;;;;;;;;;;5044301;28;20486;-69
2022/09/22 15:08:32;;;;;;;25.40;24.05;;;;;;;;;;5043359;28;20052;-70
2022/09/22 15:10:59;;;;;;;25.17;23.88;;;;;;;;;;5042710;28;20034;-71
2022/09/22 15:13:32;;;;;;;23.70;22.45;;;;;;;;;;5039847;28;20032;-70
2022/09/22 15:15:57;;;;;;;26.60;25.20;;;;;;;;;;5040889;28;20083;-71
2022/09/22 15:18:23;;;;;;;25.80;24.42;;;;;;;;;;5040570;28;20382;-70
2022/09/22 15:20:49;;;;;;;24.15;22.85;;;;;;;;;;5040709;28;20037;-73